Time;durP1;ratioP1;P1;durP2;ratioP2;P2;SDS_P1;SDS_P2;PMS_P1;PMS_P2;Temp;Humidity;BMP_temperature;BMP_pressure;BME280_temperature;BME280_humidity;BME280_pressure;Samples;Min_cycle;Max_cycle;Signal;HPM_P1;HPM_P2
2021/12/04 00:01:54;;;;;;;43.58;22.08;;;2.40;97.80;;;;;;5042902;28;20029;-76
2021/12/04 00:04:29;;;;;;;43.63;22.45;;;2.40;98.00;;;;;;5042849;28;20017;-77
2021/12/04 00:06:57;;;;;;;41.00;20.42;;;2.40;97.80;;;;;;5042516;28;20017;-77
2021/12/04 00:09:23;;;;;;;28.73;16.27;;;2.40;97.70;;;;;;5043969;28;20225;-79
2021/12/04 00:11:59;;;;;;;25.30;14.07;;;2.40;97.70;;;;;;5041623;28;20041;-77
2021/12/04 00:14:25;;;;;;;22.52;14.05;;;2.30;97.30;;;;;;5041839;28;20017;-78
2021/12/04 00:16:52;;;;;;;27.95;14.98;;;2.30;97.70;;;;;;5043818;28;20021;-77
2021/12/04 00:19:18;;;;;;;27.92;16.15;;;2.90;98.00;;;;;;5042738;28;20029;-77
2021/12/04 00:21:44;;;;;;;33.40;16.42;;;2.30;98.20;;;;;;5042649;28;20029;-77
2021/12/04 00:24:10;;;;;;;27.70;16.50;;;2.30;98.40;;;;;;5043149;28;20090;-77
2021/12/04 00:26:36;;;;;;;27.25;15.25;;;2.40;98.20;;;;;;5043563;28;20104;-77
2021/12/04 00:29:03;;;;;;;23.85;13.95;;;2.30;98.10;;;;;;5042104;28;20457;-77
2021/12/04 00:31:28;;;;;;;28.35;14.90;;;2.20;97.70;;;;;;5044957;28;20017;-78
2021/12/04 00:33:54;;;;;;;25.35;13.32;;;2.20;97.80;;;;;;5043906;28;20375;-76
2021/12/04 00:37:18;;;;;;;23.60;13.50;;;2.20;98.10;;;;;;5043099;28;20551;-76
2021/12/04 00:50:05;;;;;;;25.45;14.27;;;2.00;98.30;;;;;;5042801;28;20082;-77
2021/12/04 00:52:30;;;;;;;24.02;14.05;;;2.10;98.30;;;;;;5043090;28;20023;-78
2021/12/04 00:54:56;;;;;;;24.38;14.60;;;2.20;98.50;;;;;;5042877;28;20025;-77
2021/12/04 00:57:22;;;;;;;22.85;13.88;;;2.20;98.60;;;;;;5042711;28;20276;-80
2021/12/04 00:59:48;;;;;;;21.33;12.82;;;2.20;98.40;;;;;;5043094;28;20064;-78
2021/12/04 01:02:14;;;;;;;20.90;12.07;;;2.20;98.30;;;;;;5044343;28;20079;-77
2021/12/04 01:04:39;;;;;;;19.50;11.10;;;2.70;97.90;;;;;;5042653;28;20068;-78
2021/12/04 01:07:06;;;;;;;21.42;12.20;;;2.20;97.20;;;;;;5042160;28;20025;-78
2021/12/04 01:09:32;;;;;;;26.52;15.27;;;2.30;97.00;;;;;;5042701;28;20186;-77
2021/12/04 01:11:58;;;;;;;62.97;30.33;;;2.30;97.50;;;;;;5043009;28;20029;-78
2021/12/04 01:14:29;;;;;;;55.83;28.58;;;2.50;97.80;;;;;;5043397;28;20384;-77
2021/12/04 01:16:56;;;;;;;68.35;31.48;;;2.20;97.80;;;;;;5044665;28;20021;-77
2021/12/04 01:19:21;;;;;;;72.78;32.70;;;2.20;98.00;;;;;;5044348;28;20217;-78
2021/12/04 01:21:49;;;;;;;82.35;36.67;;;2.10;98.30;;;;;;5043569;28;20082;-77
2021/12/04 01:24:17;;;;;;;73.80;34.90;;;2.10;98.40;;;;;;5040540;28;20033;-77
2021/12/04 01:26:43;;;;;;;73.25;35.60;;;2.20;98.70;;;;;;5043091;28;20301;-78
2021/12/04 01:29:08;;;;;;;62.83;30.63;;;2.20;98.70;;;;;;5042956;28;20120;-77
2021/12/04 01:31:34;;;;;;;65.93;32.75;;;2.20;98.70;;;;;;5041482;28;20582;-78
2021/12/04 01:34:00;;;;;;;58.40;27.88;;;2.20;98.60;;;;;;5042990;28;20053;-77
2021/12/04 01:36:26;;;;;;;55.65;28.40;;;2.20;98.30;;;;;;5043343;28;20530;-77
2021/12/04 01:38:52;;;;;;;57.60;28.75;;;2.20;98.30;;;;;;5042955;28;20017;-77
2021/12/04 01:41:18;;;;;;;56.28;27.73;;;2.50;98.00;;;;;;5042993;28;20021;-79
2021/12/04 01:43:44;;;;;;;56.72;27.65;;;2.30;98.10;;;;;;5044378;28;20033;-77
2021/12/04 01:46:11;;;;;;;42.22;22.08;;;2.40;98.20;;;;;;5043136;28;20047;-77
2021/12/04 01:48:37;;;;;;;35.67;17.95;;;2.40;98.30;;;;;;5044508;28;20067;-78
2021/12/04 01:51:03;;;;;;;30.30;16.02;;;2.30;98.20;;;;;;5043960;28;20025;-77
2021/12/04 01:53:29;;;;;;;24.67;14.57;;;2.40;98.20;;;;;;5042928;28;20036;-77
2021/12/04 01:55:57;;;;;;;27.50;14.95;;;2.40;98.20;;;;;;5044958;28;20024;-78
2021/12/04 01:58:24;;;;;;;26.55;16.13;;;2.40;98.30;;;;;;5042814;28;20094;-77
2021/12/04 02:00:50;;;;;;;28.83;16.02;;;2.40;98.40;;;;;;5042526;28;20771;-78
2021/12/04 02:03:18;;;;;;;26.25;14.75;;;2.40;98.40;;;;;;5042726;28;20100;-77
2021/12/04 02:05:46;;;;;;;32.08;16.27;;;2.40;98.40;;;;;;5041835;28;20111;-80
2021/12/04 02:08:15;;;;;;;69.57;31.13;;;2.40;98.20;;;;;;5043029;28;20028;-77
2021/12/04 02:10:41;;;;;;;62.13;29.55;;;2.40;98.20;;;;;;5042064;28;20036;-79
2021/12/04 02:13:08;;;;;;;57.92;26.75;;;2.40;98.20;;;;;;5041237;28;20029;-76
2021/12/04 02:15:34;;;;;;;41.53;19.13;;;2.40;98.30;;;;;;5043259;28;20029;-78
2021/12/04 02:18:03;;;;;;;30.45;14.60;;;2.30;98.20;;;;;;5043919;28;20025;-78
2021/12/04 02:20:32;;;;;;;32.55;15.20;;;2.30;97.80;;;;;;5043088;28;20647;-77
2021/12/04 02:22:59;;;;;;;36.72;20.50;;;2.30;98.00;;;;;;5043160;28;20044;-77
2021/12/04 02:25:25;;;;;;;50.13;24.63;;;2.20;98.60;;;;;;5053225;28;20087;-78
2021/12/04 02:27:51;;;;;;;45.42;24.02;;;2.00;99.00;;;;;;5048370;28;20359;-77
2021/12/04 02:30:24;;;;;;;44.03;22.63;;;1.90;99.50;;;;;;5043641;28;20021;-77
2021/12/04 02:32:51;;;;;;;48.08;23.88;;;1.80;99.70;;;;;;5044222;28;20029;-78
2021/12/04 02:35:17;;;;;;;43.83;22.60;;;1.70;99.70;;;;;;5042634;28;20511;-76
2021/12/04 02:37:44;;;;;;;44.20;22.38;;;1.70;99.80;;;;;;5042620;28;20206;-75
2021/12/04 02:40:12;;;;;;;43.95;22.15;;;1.60;99.90;;;;;;5042708;28;20066;-78
2021/12/04 02:42:38;;;;;;;45.38;22.10;;;1.60;99.90;;;;;;5041378;28;20041;-77
2021/12/04 02:45:07;;;;;;;43.67;22.83;;;1.60;99.90;;;;;;5043117;28;20329;-77
2021/12/04 02:47:34;;;;;;;44.65;23.27;;;1.60;99.90;;;;;;5041792;28;20418;-77
2021/12/04 02:50:04;;;;;;;42.38;22.38;;;1.50;99.90;;;;;;5044404;28;20021;-77
2021/12/04 02:52:30;;;;;;;44.20;21.45;;;1.60;99.90;;;;;;5043857;28;20268;-77
2021/12/04 02:54:56;;;;;;;45.63;23.58;;;1.60;99.90;;;;;;5044962;28;20021;-77
2021/12/04 02:57:22;;;;;;;49.55;23.58;;;1.50;99.90;;;;;;5045032;28;20044;-78
2021/12/04 02:59:49;;;;;;;44.83;22.25;;;2.30;99.90;;;;;;5046220;28;20041;-77
2021/12/04 03:02:21;;;;;;;45.95;21.95;;;1.60;99.90;;;;;;5048820;28;20547;-77
2021/12/04 03:04:50;;;;;;;47.83;22.17;;;1.60;99.90;;;;;;5052485;28;20146;-76
2021/12/04 03:07:17;;;;;;;54.47;25.67;;;3.70;99.90;;;;;;5051969;28;20021;-79
2021/12/04 03:09:43;;;;;;;55.97;25.98;;;1.70;99.90;;;;;;5051055;28;20439;-77
2021/12/04 03:12:10;;;;;;;60.65;26.40;;;1.90;99.90;;;;;;5049297;28;20025;-78
2021/12/04 03:14:36;;;;;;;54.38;27.65;;;1.80;99.80;;;;;;5048373;28;20025;-76
2021/12/04 03:17:03;;;;;;;56.80;29.55;;;1.90;99.80;;;;;;5047773;28;20082;-75
2021/12/04 03:19:28;;;;;;;47.28;26.15;;;1.90;99.80;;;;;;5047462;28;20036;-77
2021/12/04 03:21:55;;;;;;;47.72;26.73;;;1.90;99.90;;;;;;5044230;28;20107;-77
2021/12/04 03:24:24;;;;;;;43.05;24.50;;;1.90;99.80;;;;;;5043728;28;20282;-76
2021/12/04 03:26:50;;;;;;;47.03;23.98;;;1.90;99.60;;;;;;5044389;28;20021;-77
2021/12/04 03:29:20;;;;;;;50.85;24.90;;;2.00;99.50;;;;;;5045161;28;20020;-78
2021/12/04 03:42:37;;;;;;;51.67;23.77;;;1.90;99.30;;;;;;5050922;28;20098;-79
2021/12/04 03:45:08;;;;;;;41.10;20.17;;;1.90;99.30;;;;;;5050820;28;20041;-77
2021/12/04 03:47:34;;;;;;;29.48;15.63;;;1.80;99.20;;;;;;5049862;28;20013;-76
2021/12/04 03:49:59;;;;;;;19.63;11.18;;;1.80;99.00;;;;;;5053352;28;20060;-77
2021/12/04 03:52:25;;;;;;;18.50;9.52;;;1.80;97.80;;;;;;5054185;28;20025;-78
2021/12/04 03:54:51;;;;;;;19.33;9.65;;;1.80;97.50;;;;;;5053155;28;20063;-76
2021/12/04 03:57:17;;;;;;;15.68;8.55;;;1.90;97.40;;;;;;5046319;28;20086;-79
2021/12/04 03:59:47;;;;;;;17.17;8.25;;;1.80;97.20;;;;;;5046377;28;20321;-77
2021/12/04 04:02:15;;;;;;;19.00;9.52;;;2.00;97.00;;;;;;5045147;28;20041;-76
2021/12/04 04:04:41;;;;;;;20.75;10.38;;;1.80;96.90;;;;;;5043695;28;20451;-77
2021/12/04 04:07:07;;;;;;;20.30;8.75;;;1.90;97.50;;;;;;5043572;28;20468;-76
2021/12/04 04:09:34;;;;;;;16.83;8.40;;;1.90;96.80;;;;;;5043072;28;20122;-76
2021/12/04 04:12:00;;;;;;;14.77;8.10;;;1.90;97.20;;;;;;5044831;28;20026;-79
2021/12/04 04:14:26;;;;;;;20.15;8.98;;;1.90;97.40;;;;;;5045129;28;20025;-79
2021/12/04 04:16:54;;;;;;;28.50;14.07;;;2.00;97.50;;;;;;5045467;28;20467;-77
2021/12/04 04:19:21;;;;;;;35.75;16.98;;;2.00;97.40;;;;;;5044225;28;20044;-76
2021/12/04 04:21:47;;;;;;;38.97;20.00;;;1.90;98.30;;;;;;5046639;28;20233;-78
2021/12/04 04:24:15;;;;;;;33.72;18.75;;;2.40;99.00;;;;;;5044531;28;20029;-76
2021/12/04 04:26:43;;;;;;;32.95;16.65;;;1.80;99.10;;;;;;5044961;28;20396;-78
2021/12/04 04:29:10;;;;;;;38.85;19.92;;;1.70;99.00;;;;;;5044692;28;20029;-79
2021/12/04 04:31:45;;;;;;;42.83;21.05;;;1.70;99.20;;;;;;5044500;28;20036;-76
2021/12/04 04:34:11;;;;;;;39.47;20.58;;;1.70;99.30;;;;;;5042366;28;20483;-77
2021/12/04 05:13:39;;;;;;;42.90;21.40;;;1.80;99.30;;;;;;5044133;28;20025;-76
2021/12/04 05:16:16;;;;;;;45.55;20.67;;;1.80;99.30;;;;;;5044581;28;20025;-77
2021/12/04 05:19:00;;;;;;;44.00;21.50;;;1.70;99.40;;;;;;5044376;28;20424;-78
2021/12/04 05:21:27;;;;;;;40.85;20.92;;;1.70;99.70;;;;;;5044080;28;20035;-76
2021/12/04 05:23:55;;;;;;;39.38;20.15;;;1.80;99.70;;;;;;5042455;28;20317;-77
2021/12/04 05:26:27;;;;;;;40.60;20.77;;;1.80;99.50;;;;;;5042715;28;20060;-77
2021/12/04 05:28:55;;;;;;;47.85;21.40;;;1.70;99.60;;;;;;5043346;28;20033;-77
2021/12/04 05:31:21;;;;;;;41.08;21.67;;;1.80;99.50;;;;;;5042233;28;20324;-77
2021/12/04 05:33:48;;;;;;;43.58;22.20;;;1.90;99.50;;;;;;5043609;28;20109;-77
2021/12/04 05:36:15;;;;;;;40.28;21.58;;;1.80;99.60;;;;;;5044241;28;20396;-77
2021/12/04 05:38:41;;;;;;;41.92;21.23;;;1.80;99.60;;;;;;5044052;28;20013;-77
2021/12/04 05:41:07;;;;;;;39.42;20.85;;;2.10;99.50;;;;;;5044317;28;20506;-76
2021/12/04 05:43:34;;;;;;;42.50;21.10;;;1.80;99.40;;;;;;5045647;28;20033;-80
2021/12/04 05:46:12;;;;;;;47.53;21.38;;;1.80;99.50;;;;;;5041053;28;20013;-77
2021/12/04 05:51:49;;;;;;;41.28;20.23;;;1.60;99.50;;;;;;5042452;28;20212;-76
2021/12/04 05:54:31;;;;;;;41.08;20.98;;;1.60;99.60;;;;;;5042615;28;20526;-76
2021/12/04 05:56:58;;;;;;;41.92;21.52;;;1.60;99.90;;;;;;5046587;28;20025;-76
2021/12/04 05:59:23;;;;;;;43.67;21.48;;;1.70;99.70;;;;;;5046790;28;20103;-77
2021/12/04 06:01:49;;;;;;;51.97;23.38;;;1.60;99.70;;;;;;5048831;28;20021;-77
2021/12/04 06:04:15;;;;;;;42.00;23.08;;;1.70;99.70;;;;;;5049002;28;20057;-78
2021/12/04 06:06:43;;;;;;;42.58;22.23;;;1.80;99.70;;;;;;5051620;28;20063;-77
2021/12/04 06:09:09;;;;;;;41.85;21.08;;;1.60;99.40;;;;;;5054202;28;20032;-78
2021/12/04 06:11:34;;;;;;;44.88;21.08;;;1.70;99.20;;;;;;5051627;28;20086;-79
2021/12/04 06:14:00;;;;;;;44.25;21.67;;;1.60;99.20;;;;;;5057934;28;20036;-77
2021/12/04 06:16:26;;;;;;;43.42;20.50;;;1.70;99.30;;;;;;5058926;28;20021;-76
2021/12/04 06:18:53;;;;;;;41.30;21.35;;;1.70;99.60;;;;;;5062525;28;20189;-75
2021/12/04 06:24:04;;;;;;;44.95;21.25;;;1.80;99.20;;;;;;5054924;28;20626;-76
2021/12/04 06:26:33;;;;;;;42.08;21.35;;;1.80;99.10;;;;;;5052052;28;20025;-75
2021/12/04 06:28:59;;;;;;;41.00;22.50;;;1.80;99.10;;;;;;5053259;28;20033;-76
2021/12/04 06:31:26;;;;;;;40.13;20.77;;;1.90;99.30;;;;;;5053882;28;20029;-76
2021/12/04 06:33:53;;;;;;;49.47;23.65;;;1.90;99.40;;;;;;5051856;28;20241;-77
2021/12/04 06:36:21;;;;;;;43.63;22.45;;;1.80;99.50;;;;;;5048724;28;20029;-76
2021/12/04 06:38:47;;;;;;;46.47;23.13;;;1.90;99.60;;;;;;5054226;28;20076;-77
2021/12/04 06:41:13;;;;;;;44.50;23.33;;;1.80;99.50;;;;;;5051798;28;20045;-76
2021/12/04 06:43:44;;;;;;;49.65;24.27;;;1.90;99.50;;;;;;5051512;28;20049;-77
2021/12/04 06:46:10;;;;;;;44.58;23.25;;;1.90;99.20;;;;;;5050070;28;20055;-75
2021/12/04 06:48:43;;;;;;;44.65;23.58;;;2.60;99.50;;;;;;5049815;28;20021;-75
2021/12/04 06:51:24;;;;;;;41.65;22.05;;;1.90;99.10;;;;;;5047535;28;20052;-76
2021/12/04 06:54:06;;;;;;;46.08;21.95;;;2.40;99.10;;;;;;5032732;28;20436;-76
2021/12/04 06:56:35;;;;;;;39.40;21.77;;;2.00;98.90;;;;;;5048395;28;20052;-77
2021/12/04 06:59:06;;;;;;;46.42;23.02;;;2.10;98.70;;;;;;5050182;28;20163;-76
2021/12/04 07:01:32;;;;;;;50.45;25.65;;;2.20;98.50;;;;;;5048618;28;20020;-77
2021/12/04 07:03:57;;;;;;;46.08;23.60;;;2.30;98.40;;;;;;5047657;28;20032;-75
2021/12/04 07:06:23;;;;;;;48.75;24.10;;;2.90;98.20;;;;;;5049370;28;20213;-76
2021/12/04 07:08:49;;;;;;;53.95;24.42;;;2.40;98.00;;;;;;5050291;28;20021;-76
2021/12/04 07:11:15;;;;;;;52.58;26.23;;;2.50;98.00;;;;;;5046150;28;20021;-76
2021/12/04 07:13:40;;;;;;;65.57;32.33;;;2.40;97.90;;;;;;5045848;28;20673;-75
2021/12/04 07:16:08;;;;;;;62.22;29.55;;;2.40;97.70;;;;;;5047091;28;20032;-76
2021/12/04 07:18:35;;;;;;;50.25;26.55;;;2.40;97.70;;;;;;5048042;28;20044;-79
2021/12/04 07:21:00;;;;;;;49.05;25.25;;;2.40;97.50;;;;;;5047523;28;20056;-75
2021/12/04 07:23:26;;;;;;;56.72;23.60;;;2.50;97.40;;;;;;5048233;28;20467;-75
2021/12/04 07:25:52;;;;;;;47.40;23.90;;;2.50;97.40;;;;;;5052988;28;20434;-76
2021/12/04 07:28:18;;;;;;;49.45;24.85;;;2.60;97.50;;;;;;5048964;28;20025;-75
2021/12/04 07:30:44;;;;;;;54.75;28.95;;;2.70;97.40;;;;;;5048671;28;20492;-76
2021/12/04 07:33:10;;;;;;;57.15;29.65;;;2.80;97.60;;;;;;5051384;28;20309;-75
2021/12/04 07:35:35;;;;;;;58.08;31.15;;;2.90;97.10;;;;;;5049212;28;20033;-77
2021/12/04 07:38:01;;;;;;;55.00;29.63;;;2.80;97.00;;;;;;5049649;28;20021;-76
2021/12/04 07:40:27;;;;;;;54.35;28.33;;;2.70;97.20;;;;;;5047928;28;20025;-74
2021/12/04 07:42:53;;;;;;;49.92;26.80;;;2.70;97.20;;;;;;5049303;28;20044;-76
2021/12/04 07:45:19;;;;;;;50.92;26.40;;;2.70;97.40;;;;;;5050030;28;20108;-81
2021/12/04 07:47:45;;;;;;;58.40;30.23;;;2.70;97.10;;;;;;5050242;28;20307;-76
2021/12/04 07:50:10;;;;;;;57.08;28.92;;;2.70;97.00;;;;;;5050462;28;20017;-75
2021/12/04 07:52:38;;;;;;;54.95;28.38;;;2.70;97.00;;;;;;5050452;28;20071;-76
2021/12/04 07:55:06;;;;;;;64.28;29.88;;;2.70;97.10;;;;;;5056049;28;20190;-76
2021/12/04 07:57:31;;;;;;;58.05;30.63;;;2.70;96.90;;;;;;5052183;28;20029;-74
2021/12/04 07:59:57;;;;;;;58.85;29.35;;;2.80;96.80;;;;;;5048615;28;20427;-76
2021/12/04 08:02:23;;;;;;;59.13;29.92;;;2.80;96.80;;;;;;5052801;28;20032;-77
2021/12/04 08:04:49;;;;;;;59.13;31.20;;;3.70;97.40;;;;;;5061436;28;20465;-78
2021/12/04 08:07:14;;;;;;;56.05;29.58;;;2.50;96.50;;;;;;5053079;28;20495;-77
2021/12/04 08:09:40;;;;;;;73.70;31.10;;;3.40;96.40;;;;;;5053563;28;20021;-77
2021/12/04 08:12:07;;;;;;;65.82;31.35;;;3.00;96.10;;;;;;5046177;28;20112;-75
2021/12/04 08:14:33;;;;;;;59.38;30.58;;;3.10;96.30;;;;;;5046602;28;20013;-76
2021/12/04 08:16:58;;;;;;;60.78;32.25;;;3.10;96.30;;;;;;5047340;28;20087;-75
2021/12/04 08:19:26;;;;;;;63.92;35.17;;;3.20;96.10;;;;;;5045125;28;20021;-80
2021/12/04 08:21:51;;;;;;;64.30;32.22;;;3.50;96.20;;;;;;5042642;28;20033;-76
2021/12/04 08:24:17;;;;;;;65.25;33.30;;;3.30;96.00;;;;;;5041374;28;20029;-75
2021/12/04 08:26:44;;;;;;;65.45;32.70;;;3.40;95.90;;;;;;5042287;28;20318;-75
2021/12/04 08:29:10;;;;;;;63.75;34.97;;;3.50;95.90;;;;;;5042917;28;20036;-76
2021/12/04 08:31:37;;;;;;;59.35;31.95;;;3.70;95.50;;;;;;5043641;28;20025;-75
2021/12/04 08:34:03;;;;;;;60.85;31.08;;;3.80;95.20;;;;;;5043649;28;20037;-77
2021/12/04 08:36:29;;;;;;;71.72;34.30;;;3.90;95.20;;;;;;5042792;28;20013;-76
2021/12/04 08:38:55;;;;;;;77.32;33.75;;;3.90;94.90;;;;;;5042245;28;20029;-76
2021/12/04 08:41:21;;;;;;;61.15;31.45;;;4.00;95.00;;;;;;5042087;28;20701;-74
2021/12/04 08:43:47;;;;;;;67.15;34.83;;;4.30;95.70;;;;;;5043117;28;20037;-76
2021/12/04 08:46:14;;;;;;;64.30;33.92;;;4.40;94.70;;;;;;5043234;28;20104;-76
2021/12/04 08:48:40;;;;;;;69.07;36.33;;;4.40;94.10;;;;;;5044387;28;20520;-76
2021/12/04 08:51:06;;;;;;;63.08;34.55;;;4.50;93.70;;;;;;5045315;28;20025;-76
2021/12/04 08:53:32;;;;;;;55.05;30.23;;;4.60;93.70;;;;;;5044937;28;20086;-77
2021/12/04 08:55:58;;;;;;;53.85;30.80;;;4.70;93.10;;;;;;5042548;28;20120;-74
2021/12/04 08:58:24;;;;;;;60.15;33.35;;;4.80;93.00;;;;;;5044546;28;20044;-75
2021/12/04 09:01:00;;;;;;;58.30;32.58;;;4.90;92.80;;;;;;5045526;28;20475;-75
2021/12/04 09:03:34;;;;;;;62.47;35.38;;;4.90;92.60;;;;;;5045973;28;20048;-76
2021/12/04 09:06:02;;;;;;;63.30;33.95;;;5.00;92.30;;;;;;5043708;28;20179;-75
2021/12/04 09:08:30;;;;;;;67.57;35.25;;;5.00;92.80;;;;;;5041126;28;20044;-78
2021/12/04 09:11:00;;;;;;;64.32;33.35;;;5.10;92.80;;;;;;5024502;28;20052;-76
2021/12/04 09:13:28;;;;;;;60.33;32.10;;;5.30;94.50;;;;;;5043003;28;20028;-78
2021/12/04 09:15:56;;;;;;;51.75;26.80;;;5.70;91.80;;;;;;5041714;28;20017;-79
2021/12/04 09:18:23;;;;;;;44.35;23.92;;;5.80;91.20;;;;;;5042092;28;20020;-77
2021/12/04 09:20:50;;;;;;;51.78;27.17;;;5.80;91.20;;;;;;5041930;28;20079;-77
2021/12/04 09:23:18;;;;;;;96.38;45.83;;;5.80;90.90;;;;;;5040912;28;20025;-76
2021/12/04 09:25:49;;;;;;;41.00;23.77;;;5.90;90.70;;;;;;5041639;28;20020;-75
2021/12/04 09:28:21;;;;;;;44.38;24.00;;;6.00;90.00;;;;;;5043682;28;20276;-78
2021/12/04 10:12:20;;;;;;;68.80;37.03;;;6.70;86.80;;;;;;5016789;28;20578;-79
2021/12/04 10:20:43;;;;;;;89.18;46.78;;;6.50;89.50;;;;;;5021168;28;20770;-76
2021/12/04 10:34:35;;;;;;;114.32;58.35;;;6.40;90.00;;;;;;4999461;28;20800;-76
2021/12/04 10:37:13;;;;;;;110.70;60.47;;;6.20;90.10;;;;;;4998789;28;20022;-76
2021/12/04 10:39:42;;;;;;;104.63;55.10;;;6.20;90.90;;;;;;5005439;28;20040;-76
2021/12/04 10:42:15;;;;;;;109.32;55.92;;;6.00;90.20;;;;;;5018830;28;20222;-76
2021/12/04 10:44:48;;;;;;;108.65;58.22;;;6.50;90.30;;;;;;5019342;28;20022;-76
2021/12/04 10:47:21;;;;;;;107.85;59.88;;;6.40;89.90;;;;;;5000973;28;20029;-78
2021/12/04 10:55:20;;;;;;;111.28;59.03;;;6.50;88.70;;;;;;5019345;28;20025;-76
2021/12/04 11:00:38;;;;;;;118.25;62.95;;;9.60;90.20;;;;;;5034747;28;20071;-76
2021/12/04 11:38:04;;;;;;;115.72;63.47;;;7.90;85.80;;;;;;5025449;28;20723;-75
2021/12/04 11:42:48;;;;;;;111.22;60.15;;;8.00;84.00;;;;;;5027984;28;20049;-76
2021/12/04 11:45:30;;;;;;;110.97;60.38;;;7.90;87.60;;;;;;5044676;28;20024;-75
2021/12/04 11:47:58;;;;;;;123.18;66.15;;;8.00;86.20;;;;;;5044311;28;20668;-77
2021/12/04 11:50:32;;;;;;;115.22;62.88;;;8.60;85.00;;;;;;5045013;28;20078;-75
2021/12/04 11:53:01;;;;;;;113.10;61.72;;;7.80;85.70;;;;;;5042589;28;20128;-77
2021/12/04 11:55:31;;;;;;;120.18;63.70;;;7.90;87.00;;;;;;5045721;28;20047;-76
2021/12/04 11:57:57;;;;;;;107.68;59.80;;;7.90;86.00;;;;;;5045851;28;20158;-75
2021/12/04 12:00:35;;;;;;;115.80;60.08;;;7.70;86.20;;;;;;5045523;28;20112;-74
2021/12/04 12:03:15;;;;;;;106.28;59.15;;;7.80;87.50;;;;;;5045861;28;20037;-75
2021/12/04 12:05:55;;;;;;;109.28;58.35;;;7.90;87.10;;;;;;5046806;28;20085;-75
2021/12/04 12:08:29;;;;;;;112.95;62.00;;;7.90;86.80;;;;;;5047959;28;20101;-76
2021/12/04 12:11:05;;;;;;;116.53;63.28;;;7.90;87.30;;;;;;5046349;28;20071;-78
2021/12/04 12:13:36;;;;;;;117.20;59.63;;;7.90;86.80;;;;;;5046830;28;20081;-75
2021/12/04 12:16:07;;;;;;;128.75;66.90;;;8.00;86.80;;;;;;5047720;28;20013;-75
2021/12/04 12:18:52;;;;;;;115.22;63.13;;;8.00;86.70;;;;;;5045271;28;20668;-76
2021/12/04 12:21:24;;;;;;;128.13;69.32;;;8.20;86.00;;;;;;5029997;28;20028;-75
2021/12/04 12:36:06;;;;;;;129.00;70.78;;;8.30;85.60;;;;;;4906997;29;20039;-74
2021/12/04 12:38:38;;;;;;;133.88;70.78;;;8.50;86.40;;;;;;4893767;29;20617;-75
2021/12/04 12:41:09;;;;;;;137.10;70.13;;;8.70;86.60;;;;;;4908536;29;20102;-74
2021/12/04 12:44:02;;;;;;;118.05;63.50;;;8.70;84.80;;;;;;4912165;29;20036;-74
2021/12/04 12:46:45;;;;;;;105.82;55.05;;;8.80;84.40;;;;;;4898961;29;20028;-75
2021/12/04 12:49:23;;;;;;;97.60;53.95;;;8.80;84.00;;;;;;4902696;29;20028;-75
2021/12/04 12:52:09;;;;;;;106.90;58.08;;;8.70;84.10;;;;;;4900104;29;20029;-75
2021/12/04 12:54:43;;;;;;;113.30;60.55;;;8.60;85.00;;;;;;4915469;29;20100;-74
2021/12/04 12:57:14;;;;;;;108.32;58.92;;;8.00;85.70;;;;;;4913125;29;20029;-76
2021/12/04 13:14:10;;;;;;;88.38;48.30;;;7.00;90.60;;;;;;4978586;28;20049;-75
2021/12/04 13:16:37;;;;;;;98.35;49.97;;;7.10;90.60;;;;;;4965342;28;20019;-76
2021/12/04 13:19:08;;;;;;;97.10;51.63;;;7.00;90.60;;;;;;4981137;28;20223;-76
2021/12/04 13:21:38;;;;;;;94.68;49.40;;;7.00;90.80;;;;;;4979757;28;20219;-75
2021/12/04 13:24:06;;;;;;;106.30;57.88;;;7.00;90.70;;;;;;4980320;28;20189;-76
2021/12/04 13:26:34;;;;;;;119.30;61.80;;;7.00;90.80;;;;;;4980577;28;20042;-75
2021/12/04 13:29:03;;;;;;;131.57;65.50;;;7.10;90.90;;;;;;4967909;28;20042;-75
2021/12/04 13:31:28;;;;;;;122.95;63.50;;;7.10;90.90;;;;;;4980194;28;20026;-77
2021/12/04 13:33:56;;;;;;;119.60;64.35;;;7.20;91.10;;;;;;4979057;28;20779;-75
2021/12/04 13:36:27;;;;;;;122.57;61.95;;;7.20;91.00;;;;;;4978829;28;20033;-75
2021/12/04 13:38:59;;;;;;;129.23;65.88;;;7.20;90.80;;;;;;4992345;28;20138;-74
2021/12/04 13:41:25;;;;;;;127.57;70.38;;;7.30;90.90;;;;;;5042445;28;20194;-74
2021/12/04 13:43:57;;;;;;;145.63;76.05;;;7.40;90.60;;;;;;5041911;28;20687;-75
2021/12/04 13:46:24;;;;;;;130.18;72.60;;;7.50;90.70;;;;;;5042319;28;20733;-75
2021/12/04 13:48:52;;;;;;;112.00;60.45;;;7.50;91.00;;;;;;5042328;28;20021;-76
2021/12/04 13:51:18;;;;;;;69.43;38.22;;;7.70;90.70;;;;;;5043259;28;20029;-76
2021/12/04 13:53:46;;;;;;;72.28;37.75;;;7.60;90.10;;;;;;5042372;28;20105;-77
2021/12/04 13:56:15;;;;;;;60.50;31.60;;;7.70;89.80;;;;;;5042343;28;20029;-75
2021/12/04 13:58:52;;;;;;;51.88;29.02;;;7.70;89.60;;;;;;5040482;28;20572;-75
2021/12/04 14:01:19;;;;;;;45.25;24.85;;;7.60;89.70;;;;;;5041932;28;20021;-77
2021/12/04 14:03:47;;;;;;;45.47;24.60;;;7.70;89.40;;;;;;5041296;28;20090;-75
2021/12/04 14:06:16;;;;;;;37.50;20.65;;;7.80;89.10;;;;;;5042380;28;20224;-75
2021/12/04 14:08:43;;;;;;;30.13;16.23;;;7.80;88.50;;;;;;5042724;28;20037;-77
2021/12/04 14:11:09;;;;;;;20.27;12.07;;;7.80;88.20;;;;;;5041764;28;20699;-76
2021/12/04 14:13:38;;;;;;;22.48;12.13;;;7.80;87.80;;;;;;5042032;28;20025;-76
2021/12/04 14:16:05;;;;;;;17.55;11.70;;;7.70;86.90;;;;;;5044428;28;20055;-77
2021/12/04 14:18:34;;;;;;;24.00;15.20;;;7.50;87.10;;;;;;5042056;28;20025;-76
2021/12/04 14:21:01;;;;;;;20.13;12.63;;;7.20;88.40;;;;;;5042263;28;20099;-77
2021/12/04 14:23:31;;;;;;;18.13;11.35;;;7.00;89.00;;;;;;5044860;28;20037;-76
2021/12/04 14:26:02;;;;;;;22.10;12.77;;;6.80;89.90;;;;;;5042871;28;20013;-77
2021/12/04 14:28:33;;;;;;;37.70;18.77;;;6.60;90.40;;;;;;5043253;28;20013;-77
2021/12/04 14:30:59;;;;;;;46.67;21.63;;;6.30;91.10;;;;;;5043655;28;20021;-77
2021/12/04 14:33:26;;;;;;;42.47;19.25;;;6.10;91.70;;;;;;5041927;28;20162;-77
2021/12/04 14:35:54;;;;;;;26.98;14.73;;;5.90;92.20;;;;;;5042337;28;20025;-77
2021/12/04 14:38:25;;;;;;;27.38;15.57;;;5.70;92.30;;;;;;5043292;28;20099;-77
2021/12/04 14:40:58;;;;;;;23.45;13.90;;;5.40;93.00;;;;;;5048447;28;20025;-77
2021/12/04 14:43:26;;;;;;;24.85;14.70;;;5.20;93.40;;;;;;5051445;28;20040;-76
2021/12/04 14:45:56;;;;;;;22.92;13.50;;;5.10;93.90;;;;;;5051207;28;20097;-76
2021/12/04 14:48:35;;;;;;;21.73;14.23;;;5.00;94.20;;;;;;5050426;28;20021;-76
2021/12/04 14:51:09;;;;;;;20.58;13.38;;;4.90;94.30;;;;;;5051819;28;20048;-76
2021/12/04 14:53:38;;;;;;;24.58;15.63;;;4.80;94.60;;;;;;5044247;28;20023;-75
2021/12/04 14:56:07;;;;;;;23.88;15.05;;;4.70;95.00;;;;;;5049132;28;20025;-76
2021/12/04 14:58:33;;;;;;;24.48;15.15;;;4.60;95.10;;;;;;5046256;28;20068;-76
2021/12/04 15:01:03;;;;;;;23.85;14.52;;;4.40;95.50;;;;;;5046621;28;20531;-75
2021/12/04 15:03:33;;;;;;;22.95;14.20;;;4.30;95.70;;;;;;5045351;28;20099;-75
2021/12/04 15:06:01;;;;;;;37.75;17.83;;;4.20;96.10;;;;;;5043529;28;20021;-78
2021/12/04 15:08:33;;;;;;;38.80;18.80;;;4.10;96.20;;;;;;5045182;28;20077;-77
2021/12/04 15:11:04;;;;;;;29.95;16.95;;;4.00;96.50;;;;;;5045245;28;20025;-75
2021/12/04 15:13:34;;;;;;;29.92;17.92;;;4.00;96.60;;;;;;5042340;28;20051;-76
2021/12/04 15:16:04;;;;;;;27.98;16.92;;;3.90;96.90;;;;;;5044032;28;20025;-75
2021/12/04 15:18:36;;;;;;;27.45;16.15;;;3.80;97.10;;;;;;5043226;28;20043;-77
2021/12/04 15:21:10;;;;;;;30.52;16.02;;;3.70;97.30;;;;;;5043874;28;20041;-77
2021/12/04 15:23:36;;;;;;;30.05;17.85;;;3.90;97.60;;;;;;5043780;28;20041;-75
2021/12/04 15:26:15;;;;;;;28.73;17.45;;;3.50;97.70;;;;;;5042779;28;20626;-76
2021/12/04 15:28:50;;;;;;;37.83;18.38;;;3.50;98.00;;;;;;5044473;28;20032;-76
2021/12/04 15:31:17;;;;;;;29.95;17.52;;;3.50;98.00;;;;;;5046118;28;20071;-75
2021/12/04 15:33:47;;;;;;;34.72;19.70;;;3.30;98.20;;;;;;5047224;28;20148;-76
2021/12/04 15:36:46;;;;;;;30.20;17.42;;;3.30;98.40;;;;;;5046449;28;20706;-76
2021/12/04 15:39:29;;;;;;;35.60;19.95;;;5.40;99.00;;;;;;5019701;28;20017;-76
2021/12/04 15:47:37;;;;;;;29.42;17.48;;;3.20;98.60;;;;;;5024009;28;20021;-76
2021/12/04 15:53:03;;;;;;;37.45;20.55;;;5.00;99.30;;;;;;5025534;28;20028;-76
2021/12/04 15:55:35;;;;;;;36.85;20.35;;;3.00;99.00;;;;;;5009628;28;20209;-77
2021/12/04 15:58:05;;;;;;;34.67;18.65;;;3.00;99.10;;;;;;5010803;28;20096;-77
2021/12/04 16:00:34;;;;;;;45.50;25.23;;;2.90;99.10;;;;;;5009954;28;20095;-76
2021/12/04 16:03:01;;;;;;;45.30;24.85;;;3.00;99.30;;;;;;5029561;28;20050;-78
2021/12/04 16:05:32;;;;;;;42.70;22.15;;;2.90;99.40;;;;;;5029806;28;20076;-76
2021/12/04 16:08:07;;;;;;;35.42;19.92;;;3.00;99.20;;;;;;5034318;28;20033;-77